Time;durP1;ratioP1;P1;durP2;ratioP2;P2;SDS_P1;SDS_P2;PMS_P1;PMS_P2;Temp;Humidity;BMP_temperature;BMP_pressure;BME280_temperature;BME280_humidity;BME280_pressure;Samples;Min_cycle;Max_cycle;Signal;HPM_P1;HPM_P2
2022/03/31 00:02:10;;;;;;;14.13;6.77;;;3.50;97.30;;;;;;5033612;28;20419;-77
2022/03/31 00:04:39;;;;;;;19.00;7.20;;;3.50;97.30;;;;;;5032650;28;20196;-75
2022/03/31 00:07:05;;;;;;;12.87;7.20;;;3.50;97.30;;;;;;5030662;28;20183;-77
2022/03/31 00:09:31;;;;;;;13.53;6.60;;;3.50;97.30;;;;;;5015182;28;20436;-76
2022/03/31 00:12:00;;;;;;;18.13;7.13;;;3.60;97.30;;;;;;5011580;28;20630;-77
2022/03/31 00:14:26;;;;;;;15.47;7.07;;;3.60;97.30;;;;;;5010739;28;20992;-77
2022/03/31 00:16:53;;;;;;;22.40;7.60;;;3.60;97.30;;;;;;5011169;28;20471;-77
2022/03/31 00:19:19;;;;;;;13.03;6.50;;;3.60;97.30;;;;;;5012193;28;20557;-77
2022/03/31 00:21:45;;;;;;;15.83;6.80;;;3.60;97.30;;;;;;5008424;28;20439;-76
2022/03/31 00:24:10;;;;;;;17.37;7.80;;;3.60;97.30;;;;;;4991082;28;20441;-77
2022/03/31 00:26:37;;;;;;;15.43;7.40;;;3.60;97.30;;;;;;4995490;28;20189;-79
2022/03/31 00:29:04;;;;;;;14.73;6.70;;;3.60;97.30;;;;;;4999625;28;20492;-76
2022/03/31 00:31:30;;;;;;;18.30;8.30;;;3.60;97.30;;;;;;4993246;28;20836;-76
2022/03/31 00:33:55;;;;;;;17.70;8.60;;;3.60;97.30;;;;;;4991668;28;20537;-77
2022/03/31 00:36:21;;;;;;;19.60;8.07;;;3.60;97.30;;;;;;4991858;28;20213;-77
2022/03/31 00:41:37;;;;;;;26.43;10.23;;;3.70;97.30;;;;;;4993037;28;20176;-77
2022/03/31 00:44:06;;;;;;;14.50;8.33;;;3.70;97.30;;;;;;5027349;28;20454;-77
2022/03/31 00:46:31;;;;;;;21.27;8.77;;;3.70;97.30;;;;;;5032736;28;20422;-76
2022/03/31 00:48:57;;;;;;;24.57;10.37;;;3.70;97.30;;;;;;5030853;28;20932;-77
2022/03/31 00:51:24;;;;;;;25.60;10.40;;;3.80;97.30;;;;;;5031286;28;20176;-76
2022/03/31 00:53:51;;;;;;;24.00;10.30;;;3.80;97.30;;;;;;5032747;28;20816;-76
2022/03/31 00:56:18;;;;;;;24.03;9.47;;;3.80;97.30;;;;;;5033420;28;20454;-76
2022/03/31 00:58:44;;;;;;;20.50;10.73;;;3.80;97.30;;;;;;5031908;28;20403;-76
2022/03/31 01:01:12;;;;;;;27.03;11.10;;;3.90;97.30;;;;;;5032172;28;20411;-77
2022/03/31 01:03:38;;;;;;;28.23;12.90;;;3.90;97.30;;;;;;5030361;28;20197;-77
2022/03/31 01:06:05;;;;;;;21.50;9.43;;;3.90;97.30;;;;;;5030929;28;20484;-76
2022/03/31 01:08:30;;;;;;;23.87;10.37;;;3.90;97.30;;;;;;5030742;28;20920;-77
2022/03/31 01:10:58;;;;;;;29.63;12.37;;;3.90;97.30;;;;;;5031612;28;20407;-77
2022/03/31 01:13:29;;;;;;;23.60;9.77;;;3.90;97.30;;;;;;5029679;28;20236;-77
2022/03/31 01:15:58;;;;;;;24.37;10.83;;;3.90;97.30;;;;;;5031347;28;20403;-77
2022/03/31 01:18:23;;;;;;;31.23;11.40;;;3.90;97.30;;;;;;5031011;28;20812;-78
2022/03/31 01:20:49;;;;;;;22.90;10.73;;;3.80;97.30;;;;;;5029638;28;20407;-77
2022/03/31 01:23:15;;;;;;;19.77;9.17;;;3.80;97.30;;;;;;5014235;28;20193;-77
2022/03/31 01:25:41;;;;;;;27.77;11.33;;;3.80;97.30;;;;;;5011461;28;20262;-78
2022/03/31 01:28:08;;;;;;;17.00;9.03;;;3.80;97.30;;;;;;5043211;28;20416;-77
2022/03/31 01:30:38;;;;;;;22.03;10.50;;;3.80;97.30;;;;;;5009705;28;20408;-77
2022/03/31 01:33:03;;;;;;;19.00;8.60;;;3.80;97.30;;;;;;5042794;28;20444;-77
2022/03/31 01:35:29;;;;;;;20.50;8.40;;;3.80;97.30;;;;;;5011068;28;20470;-78
2022/03/31 01:37:58;;;;;;;17.80;8.10;;;3.70;97.30;;;;;;5010032;28;20259;-77
2022/03/31 01:40:23;;;;;;;14.60;6.90;;;3.60;97.30;;;;;;5010181;28;20401;-77
2022/03/31 01:42:49;;;;;;;14.67;7.33;;;3.60;97.30;;;;;;5019070;28;20415;-78
2022/03/31 01:45:20;;;;;;;14.70;8.07;;;3.50;97.30;;;;;;5029876;28;20186;-77
2022/03/31 01:47:45;;;;;;;15.93;7.67;;;3.50;97.30;;;;;;5030713;28;20188;-77
2022/03/31 01:50:12;;;;;;;17.00;7.73;;;3.40;97.30;;;;;;5028899;28;20423;-78
2022/03/31 01:52:39;;;;;;;16.83;8.20;;;3.30;97.30;;;;;;5029031;28;20188;-78
2022/03/31 01:55:07;;;;;;;14.53;6.70;;;3.30;97.30;;;;;;5030174;28;20435;-77
2022/03/31 01:57:34;;;;;;;13.90;7.50;;;3.20;97.30;;;;;;5029466;28;20517;-77
2022/03/31 02:00:02;;;;;;;15.60;7.13;;;3.10;97.30;;;;;;5035016;28;20963;-81
2022/03/31 02:02:30;;;;;;;16.97;7.13;;;3.10;97.30;;;;;;5036996;28;20420;-81
2022/03/31 02:04:56;;;;;;;15.47;7.27;;;3.00;97.30;;;;;;5037126;28;20435;-81
2022/03/31 02:07:22;;;;;;;16.33;7.93;;;3.00;97.30;;;;;;5036783;28;20419;-80
2022/03/31 02:09:48;;;;;;;14.57;8.00;;;2.90;97.30;;;;;;5036659;28;20530;-81
2022/03/31 02:12:14;;;;;;;17.40;7.90;;;2.90;97.30;;;;;;5037629;28;20188;-80
2022/03/31 02:14:41;;;;;;;18.60;7.80;;;2.90;97.30;;;;;;5037403;28;20236;-81
2022/03/31 02:17:08;;;;;;;21.93;8.80;;;2.80;97.30;;;;;;5034127;28;20529;-81
2022/03/31 02:19:37;;;;;;;16.93;7.90;;;2.70;97.30;;;;;;5030026;28;20407;-79
2022/03/31 02:22:04;;;;;;;12.53;6.83;;;2.70;97.30;;;;;;5023371;28;20416;-79
2022/03/31 02:24:30;;;;;;;18.87;8.43;;;2.60;97.30;;;;;;5008803;28;20432;-77
2022/03/31 02:26:57;;;;;;;15.50;8.23;;;2.60;97.30;;;;;;5010538;28;20423;-77
2022/03/31 02:29:22;;;;;;;13.10;7.20;;;2.50;97.30;;;;;;5008911;28;20412;-77
2022/03/31 02:31:48;;;;;;;13.50;7.30;;;2.50;97.30;;;;;;5010195;28;20937;-78
2022/03/31 02:34:17;;;;;;;18.23;8.63;;;2.40;97.30;;;;;;5009821;28;20233;-78
2022/03/31 02:36:44;;;;;;;16.47;8.63;;;2.40;97.30;;;;;;5008778;28;20992;-77
2022/03/31 02:39:10;;;;;;;16.50;7.70;;;2.40;97.30;;;;;;5008410;28;20443;-77
2022/03/31 02:41:37;;;;;;;15.40;7.80;;;2.30;97.30;;;;;;5011192;28;20412;-75
2022/03/31 02:44:04;;;;;;;24.47;8.67;;;2.30;97.30;;;;;;5011427;28;20447;-76
2022/03/31 02:46:30;;;;;;;21.27;7.93;;;2.30;97.30;;;;;;5008038;28;20527;-76
2022/03/31 02:48:58;;;;;;;17.90;7.63;;;2.20;97.30;;;;;;5014056;28;20422;-75
2022/03/31 02:51:27;;;;;;;17.90;8.43;;;2.20;97.30;;;;;;5008622;28;20439;-75
2022/03/31 02:56:38;;;;;;;23.30;9.20;;;2.10;97.30;;;;;;5010187;28;20967;-75
2022/03/31 02:59:07;;;;;;;17.70;9.07;;;2.10;97.30;;;;;;5008600;28;20501;-75
2022/03/31 03:01:32;;;;;;;26.03;8.30;;;2.10;97.30;;;;;;5008546;28;20419;-75
2022/03/31 03:03:59;;;;;;;17.87;8.30;;;2.00;97.30;;;;;;5008511;28;20440;-76
2022/03/31 03:06:28;;;;;;;23.43;9.43;;;2.10;97.30;;;;;;5024468;28;20263;-76
2022/03/31 03:08:56;;;;;;;19.23;8.80;;;2.10;97.30;;;;;;5008538;28;20462;-76
2022/03/31 03:11:22;;;;;;;22.17;9.40;;;2.00;97.30;;;;;;5010324;28;20420;-76
2022/03/31 03:13:48;;;;;;;23.50;10.20;;;2.10;97.30;;;;;;5008222;28;20468;-76
2022/03/31 03:16:14;;;;;;;23.60;8.80;;;2.10;97.30;;;;;;5009571;28;20546;-75
2022/03/31 03:18:40;;;;;;;20.73;8.20;;;2.10;97.30;;;;;;5010060;28;20161;-76
2022/03/31 03:21:08;;;;;;;20.53;10.10;;;2.10;97.30;;;;;;5009208;28;20575;-81
2022/03/31 03:23:39;;;;;;;16.00;8.77;;;2.10;97.30;;;;;;4993537;28;20547;-79
2022/03/31 03:26:06;;;;;;;21.90;8.97;;;2.10;97.30;;;;;;4989280;28;20911;-79
2022/03/31 03:28:37;;;;;;;19.87;8.83;;;2.10;97.30;;;;;;4989044;28;20429;-79
2022/03/31 03:31:06;;;;;;;14.93;7.37;;;2.10;97.30;;;;;;4989132;28;20413;-79
2022/03/31 03:33:32;;;;;;;18.93;7.87;;;2.20;97.30;;;;;;4973190;28;20460;-79
2022/03/31 03:35:59;;;;;;;17.67;8.00;;;2.20;97.30;;;;;;4991571;28;20417;-79
2022/03/31 03:38:28;;;;;;;18.87;9.30;;;2.20;97.30;;;;;;4988811;28;20503;-79
2022/03/31 03:40:55;;;;;;;15.40;8.07;;;2.20;97.30;;;;;;4989555;28;20970;-79
2022/03/31 03:43:20;;;;;;;16.83;7.90;;;2.20;97.30;;;;;;5006906;28;20786;-78
2022/03/31 03:45:46;;;;;;;17.07;7.50;;;2.20;97.30;;;;;;5012089;28;20495;-77
2022/03/31 03:48:12;;;;;;;29.50;7.17;;;2.20;97.30;;;;;;5013289;28;20173;-76
2022/03/31 03:50:38;;;;;;;16.00;7.00;;;2.20;97.30;;;;;;5011702;28;20220;-76
2022/03/31 03:53:07;;;;;;;23.53;7.23;;;2.20;97.30;;;;;;5011465;28;20235;-76
2022/03/31 03:55:34;;;;;;;22.10;8.60;;;2.20;97.30;;;;;;5012982;28;20443;-76
2022/03/31 03:58:00;;;;;;;17.87;7.23;;;2.20;97.30;;;;;;5011825;28;20851;-77
2022/03/31 04:00:27;;;;;;;16.97;7.60;;;2.10;97.30;;;;;;5013017;28;20771;-77
2022/03/31 04:02:53;;;;;;;15.87;7.53;;;2.10;97.30;;;;;;5011818;28;20502;-76
2022/03/31 04:05:20;;;;;;;19.30;8.17;;;2.10;97.30;;;;;;5011525;28;20424;-76
2022/03/31 04:07:45;;;;;;;19.50;8.03;;;2.10;97.30;;;;;;5011458;28;20420;-77
2022/03/31 04:10:11;;;;;;;12.90;7.10;;;2.10;97.30;;;;;;5011979;28;20478;-77
2022/03/31 04:12:38;;;;;;;16.70;7.57;;;2.10;97.30;;;;;;5012128;28;20205;-76
2022/03/31 04:15:04;;;;;;;9.33;6.80;;;2.10;97.30;;;;;;5011462;28;20201;-76
2022/03/31 04:17:31;;;;;;;15.77;7.60;;;2.10;97.30;;;;;;5010926;28;20506;-76
2022/03/31 04:19:57;;;;;;;13.13;6.63;;;2.20;97.30;;;;;;5025923;23;20424;-87
2022/03/31 04:22:22;;;;;;;19.63;7.47;;;2.20;97.30;;;;;;5011502;28;20459;-87
2022/03/31 04:24:48;;;;;;;15.60;7.87;;;2.20;97.30;;;;;;5002293;28;20260;-87
2022/03/31 04:27:13;;;;;;;15.20;7.90;;;2.20;97.30;;;;;;5013669;28;20193;-87
2022/03/31 04:29:39;;;;;;;22.70;8.30;;;2.20;97.30;;;;;;5022325;28;20176;-87
2022/03/31 04:32:05;;;;;;;13.40;6.70;;;2.20;97.30;;;;;;5033164;28;20535;-87
2022/03/31 04:34:30;;;;;;;18.70;7.13;;;2.20;97.30;;;;;;5034220;28;20173;-87
2022/03/31 04:36:56;;;;;;;16.37;6.73;;;2.30;97.30;;;;;;5032733;28;20846;-88
2022/03/31 04:39:21;;;;;;;17.43;7.97;;;2.20;97.30;;;;;;5014470;28;20184;-86
2022/03/31 04:41:47;;;;;;;15.47;7.63;;;2.30;97.30;;;;;;5014063;28;20193;-87
2022/03/31 04:44:13;;;;;;;18.67;8.33;;;2.30;97.30;;;;;;5012919;28;20184;-87
2022/03/31 04:46:39;;;;;;;21.47;8.07;;;2.20;97.30;;;;;;5013014;28;20315;-87
2022/03/31 04:49:05;;;;;;;16.87;8.37;;;2.30;97.30;;;;;;5012977;28;20507;-87
2022/03/31 04:51:30;;;;;;;15.40;8.20;;;2.30;97.30;;;;;;5012698;28;20291;-87
2022/03/31 04:53:56;;;;;;;24.53;8.30;;;2.20;97.30;;;;;;5012551;28;20486;-87
2022/03/31 04:56:22;;;;;;;20.43;7.90;;;2.20;97.30;;;;;;5012745;28;20200;-86
2022/03/31 04:58:48;;;;;;;21.63;7.47;;;2.30;97.30;;;;;;5012754;28;20177;-87
2022/03/31 05:01:17;;;;;;;18.73;7.07;;;2.30;97.30;;;;;;5012465;28;20204;-85
2022/03/31 05:03:43;;;;;;;16.33;8.50;;;2.30;97.30;;;;;;5012452;28;20416;-87
2022/03/31 05:06:08;;;;;;;16.53;8.50;;;2.30;97.30;;;;;;5012557;28;20427;-86
2022/03/31 05:08:34;;;;;;;14.40;8.10;;;2.30;97.30;;;;;;5012905;28;20173;-85
2022/03/31 05:11:00;;;;;;;18.87;8.43;;;2.30;97.30;;;;;;5012462;28;20676;-87
2022/03/31 05:13:26;;;;;;;18.80;8.10;;;2.30;97.30;;;;;;5012372;28;20412;-86
2022/03/31 05:15:52;;;;;;;20.63;8.83;;;2.30;97.30;;;;;;5012300;28;20173;-86
2022/03/31 05:18:18;;;;;;;18.10;8.33;;;2.30;97.30;;;;;;5012261;28;20210;-87
2022/03/31 05:20:43;;;;;;;24.77;8.73;;;2.40;97.30;;;;;;5011747;28;21005;-87
2022/03/31 05:23:10;;;;;;;18.07;8.80;;;2.40;97.30;;;;;;5012019;28;20169;-87
2022/03/31 05:25:35;;;;;;;21.50;8.90;;;2.40;97.30;;;;;;5013069;28;20659;-87
2022/03/31 05:28:01;;;;;;;21.27;11.23;;;2.40;97.30;;;;;;5012139;28;20422;-87
2022/03/31 05:30:27;;;;;;;17.57;8.60;;;2.40;97.30;;;;;;5011834;28;20204;-86
2022/03/31 05:32:55;;;;;;;15.07;8.30;;;2.30;97.30;;;;;;5011934;28;20193;-85
2022/03/31 05:35:21;;;;;;;28.67;10.83;;;2.30;97.30;;;;;;5011892;28;20189;-87
2022/03/31 05:37:47;;;;;;;26.60;10.90;;;2.30;97.30;;;;;;5012184;28;20460;-85
2022/03/31 05:40:17;;;;;;;20.00;9.57;;;2.30;97.30;;;;;;5012271;28;20487;-87
2022/03/31 05:42:43;;;;;;;18.30;9.60;;;2.30;97.30;;;;;;5012237;28;20456;-88
2022/03/31 05:45:10;;;;;;;21.07;10.13;;;2.20;97.30;;;;;;5016091;28;20412;-85
2022/03/31 05:47:37;;;;;;;16.13;9.33;;;2.20;97.30;;;;;;5026628;28;20427;-87
2022/03/31 05:50:04;;;;;;;22.90;9.70;;;2.20;97.30;;;;;;5031030;28;20446;-87
2022/03/31 05:52:30;;;;;;;18.10;10.20;;;2.20;97.30;;;;;;5031137;28;20427;-87
2022/03/31 05:54:55;;;;;;;25.37;9.50;;;2.30;97.30;;;;;;5031108;28;20510;-87
2022/03/31 05:57:21;;;;;;;22.13;9.30;;;2.30;97.30;;;;;;5032607;28;20204;-85
2022/03/31 05:59:47;;;;;;;18.93;9.53;;;2.30;97.30;;;;;;5031522;28;20200;-86
2022/03/31 06:02:12;;;;;;;20.57;9.90;;;2.30;97.30;;;;;;5032386;28;20172;-86
2022/03/31 06:04:38;;;;;;;22.83;10.30;;;2.30;97.30;;;;;;5030483;28;20168;-87
2022/03/31 06:07:05;;;;;;;20.63;10.60;;;2.30;97.30;;;;;;5031173;28;20184;-87
2022/03/31 06:09:30;;;;;;;24.67;11.43;;;2.30;97.30;;;;;;5030988;28;20446;-87
2022/03/31 06:11:56;;;;;;;25.07;10.60;;;2.30;97.30;;;;;;5031040;28;20411;-85
2022/03/31 06:14:21;;;;;;;34.53;11.17;;;2.30;97.30;;;;;;5031169;28;20181;-86
2022/03/31 06:16:49;;;;;;;21.97;11.60;;;2.30;97.30;;;;;;5031038;28;20207;-87
2022/03/31 06:19:15;;;;;;;28.97;11.07;;;2.30;97.30;;;;;;5019709;28;20183;-87
2022/03/31 06:21:41;;;;;;;26.63;11.50;;;2.40;97.30;;;;;;5011206;28;20460;-87
2022/03/31 06:24:07;;;;;;;32.57;12.70;;;2.40;97.30;;;;;;5011541;28;20420;-86
2022/03/31 06:26:33;;;;;;;24.57;12.30;;;2.40;97.30;;;;;;5011131;28;20957;-87
2022/03/31 06:28:58;;;;;;;26.10;11.97;;;2.40;97.30;;;;;;5011588;28;20185;-87
2022/03/31 06:31:24;;;;;;;30.60;12.10;;;2.40;97.30;;;;;;5010901;28;21154;-87
2022/03/31 06:33:51;;;;;;;25.90;12.10;;;2.50;97.30;;;;;;5011289;28;20208;-86
2022/03/31 06:36:17;;;;;;;25.60;12.73;;;2.50;97.30;;;;;;5011220;28;20213;-87
2022/03/31 06:38:43;;;;;;;29.40;12.50;;;2.50;97.30;;;;;;5011338;28;20856;-86
2022/03/31 06:41:14;;;;;;;32.73;12.73;;;2.60;97.30;;;;;;5011217;28;20440;-86
2022/03/31 06:43:45;;;;;;;28.10;13.13;;;2.60;97.30;;;;;;5011270;28;20434;-87
2022/03/31 06:46:13;;;;;;;27.10;14.00;;;2.60;97.30;;;;;;5011426;28;20420;-87
2022/03/31 06:48:43;;;;;;;28.50;13.47;;;2.70;97.30;;;;;;5012836;28;20423;-87
2022/03/31 06:51:10;;;;;;;29.10;13.70;;;2.70;97.30;;;;;;5011171;28;20444;-87
2022/03/31 06:53:39;;;;;;;33.70;14.30;;;2.80;97.30;;;;;;5024491;28;20514;-86
2022/03/31 06:56:09;;;;;;;32.93;14.90;;;2.80;97.30;;;;;;5030789;28;20817;-86
2022/03/31 06:58:36;;;;;;;35.43;15.33;;;2.90;97.30;;;;;;5030964;28;20435;-87
2022/03/31 07:01:02;;;;;;;35.93;15.43;;;2.90;97.30;;;;;;5031170;28;20984;-87
2022/03/31 07:03:28;;;;;;;34.40;16.37;;;2.90;97.30;;;;;;5030898;28;20427;-87
2022/03/31 07:05:54;;;;;;;31.97;14.30;;;3.00;97.30;;;;;;5030879;28;20460;-86
2022/03/31 07:08:20;;;;;;;43.90;15.40;;;2.90;97.30;;;;;;5031216;28;20590;-86
2022/03/31 07:10:46;;;;;;;27.93;13.00;;;2.90;97.30;;;;;;5028122;28;20577;-87
2022/03/31 07:13:12;;;;;;;37.50;15.87;;;2.90;97.30;;;;;;5026582;28;20196;-87
2022/03/31 07:15:37;;;;;;;31.43;15.60;;;2.90;97.30;;;;;;5029025;28;20453;-87
2022/03/31 07:18:05;;;;;;;36.43;15.60;;;2.90;97.30;;;;;;5031820;28;20972;-87
2022/03/31 07:20:31;;;;;;;37.60;14.00;;;2.90;97.30;;;;;;5031510;28;20269;-87
2022/03/31 07:22:57;;;;;;;27.97;13.90;;;2.90;97.30;;;;;;5019107;28;20423;-89
2022/03/31 07:25:22;;;;;;;28.43;14.07;;;2.90;97.30;;;;;;5011996;28;20903;-87
2022/03/31 07:27:49;;;;;;;44.40;15.17;;;2.90;97.30;;;;;;5011670;28;20181;-87
2022/03/31 07:30:16;;;;;;;31.60;13.00;;;2.90;97.30;;;;;;5011853;28;20209;-87
2022/03/31 07:32:53;;;;;;;37.10;14.10;;;3.00;97.30;;;;;;5011434;28;20416;-86
2022/03/31 07:35:21;;;;;;;29.70;13.37;;;3.00;97.30;;;;;;5014023;28;20478;-86
2022/03/31 07:37:51;;;;;;;38.37;13.83;;;3.00;97.30;;;;;;5015521;28;20551;-87
2022/03/31 07:40:17;;;;;;;29.77;12.33;;;3.00;97.30;;;;;;5015393;28;20527;-87
2022/03/31 07:42:43;;;;;;;29.13;12.33;;;3.00;97.30;;;;;;5047183;28;20507;-86
2022/03/31 07:45:09;;;;;;;31.00;12.90;;;3.00;97.30;;;;;;5015430;28;20775;-87
2022/03/31 07:47:35;;;;;;;27.57;13.03;;;3.00;97.30;;;;;;5015532;28;20185;-87
2022/03/31 07:50:01;;;;;;;27.43;12.73;;;3.00;97.30;;;;;;5014449;28;20439;-87
2022/03/31 07:52:26;;;;;;;29.50;13.07;;;3.00;97.30;;;;;;5018557;28;20805;-88
2022/03/31 07:54:52;;;;;;;32.50;11.97;;;3.00;97.30;;;;;;5032153;28;20177;-87
2022/03/31 07:57:19;;;;;;;31.47;14.67;;;3.10;97.30;;;;;;5031874;28;20229;-87
2022/03/31 07:59:44;;;;;;;31.33;13.57;;;3.10;97.30;;;;;;5030798;28;20405;-86
2022/03/31 08:02:10;;;;;;;30.17;12.73;;;3.10;97.30;;;;;;5030726;28;20423;-87
2022/03/31 08:04:35;;;;;;;27.83;13.47;;;3.00;97.30;;;;;;5032132;28;20169;-86
2022/03/31 08:07:01;;;;;;;31.50;14.47;;;3.00;97.30;;;;;;5013052;28;20648;-86
2022/03/31 08:09:26;;;;;;;29.87;11.70;;;3.10;97.30;;;;;;5013797;28;20299;-87
2022/03/31 08:11:59;;;;;;;24.10;11.63;;;3.10;97.30;;;;;;4998137;28;20205;-87
2022/03/31 08:14:25;;;;;;;20.53;11.80;;;3.20;97.30;;;;;;5004204;28;20181;-87
2022/03/31 08:16:51;;;;;;;27.17;12.63;;;3.30;97.30;;;;;;5008639;28;20463;-87
2022/03/31 08:19:18;;;;;;;29.63;13.67;;;3.30;97.30;;;;;;5011962;28;20169;-86
2022/03/31 08:21:45;;;;;;;23.43;11.43;;;3.40;97.30;;;;;;5011869;28;20460;-86
2022/03/31 08:24:13;;;;;;;28.20;12.60;;;3.50;97.30;;;;;;5012937;28;20427;-88
2022/03/31 08:26:41;;;;;;;25.57;12.90;;;3.50;97.30;;;;;;5012797;28;20776;-84
2022/03/31 08:29:08;;;;;;;26.70;12.63;;;3.50;97.30;;;;;;5014978;28;20431;-87
2022/03/31 08:31:34;;;;;;;22.87;12.77;;;3.60;97.30;;;;;;5010754;28;20450;-86
2022/03/31 08:34:00;;;;;;;28.10;13.13;;;3.60;97.30;;;;;;5022399;28;20411;-86
2022/03/31 08:36:26;;;;;;;24.30;12.10;;;3.70;97.30;;;;;;5024131;28;20291;-86
2022/03/31 08:38:54;;;;;;;23.27;11.57;;;3.70;97.30;;;;;;5023125;28;20474;-87
2022/03/31 08:41:24;;;;;;;26.30;13.53;;;3.70;97.30;;;;;;5021382;28;20424;-86
2022/03/31 08:43:50;;;;;;;23.40;11.23;;;3.80;97.30;;;;;;5027979;28;20415;-86
2022/03/31 08:46:17;;;;;;;28.10;12.60;;;3.90;97.30;;;;;;5030991;28;20481;-87
2022/03/31 08:48:43;;;;;;;26.50;12.43;;;4.00;97.30;;;;;;5016226;28;20436;-88
2022/03/31 08:51:08;;;;;;;22.47;12.07;;;4.10;97.30;;;;;;4997634;28;20639;-86
2022/03/31 08:53:36;;;;;;;27.20;11.67;;;4.30;97.30;;;;;;5015653;28;20498;-87
2022/03/31 08:56:05;;;;;;;18.00;9.60;;;4.30;97.30;;;;;;5010463;28;20404;-87
2022/03/31 08:58:31;;;;;;;28.47;10.90;;;4.30;97.30;;;;;;5010160;28;20413;-88
2022/03/31 09:00:57;;;;;;;21.50;10.90;;;4.20;97.30;;;;;;5010081;28;20435;-87
2022/03/31 09:03:36;;;;;;;19.43;10.17;;;4.20;97.30;;;;;;5016108;28;20647;-87
2022/03/31 09:06:01;;;;;;;22.73;11.20;;;4.20;97.30;;;;;;5031570;28;20702;-87
2022/03/31 09:08:27;;;;;;;24.90;12.70;;;4.20;97.30;;;;;;5030888;28;20423;-86
2022/03/31 09:10:57;;;;;;;20.27;9.83;;;4.20;97.30;;;;;;5032289;28;20577;-87
2022/03/31 09:13:28;;;;;;;18.53;9.57;;;4.30;97.30;;;;;;5032232;28;20165;-87
2022/03/31 09:16:02;;;;;;;20.07;9.60;;;4.30;97.30;;;;;;5032427;28;21106;-87
2022/03/31 09:18:31;;;;;;;18.20;10.37;;;4.40;97.30;;;;;;5032698;28;20425;-85
2022/03/31 09:20:59;;;;;;;18.47;9.27;;;4.30;97.30;;;;;;5033462;28;20455;-87
2022/03/31 09:23:38;;;;;;;20.47;9.77;;;4.30;97.30;;;;;;5032319;28;20430;-85
2022/03/31 09:26:08;;;;;;;16.93;9.00;;;4.40;97.30;;;;;;5033258;28;20423;-87
2022/03/31 09:28:36;;;;;;;17.73;9.10;;;4.40;97.30;;;;;;5032443;28;20843;-87
2022/03/31 09:31:10;;;;;;;19.57;9.50;;;4.40;97.30;;;;;;5030894;28;20520;-86
2022/03/31 09:33:39;;;;;;;20.73;9.50;;;4.40;97.30;;;;;;5025178;28;20425;-88
2022/03/31 09:36:12;;;;;;;20.93;9.67;;;4.50;97.30;;;;;;5009201;28;20522;-87
2022/03/31 09:38:39;;;;;;;15.73;8.40;;;4.50;97.30;;;;;;5013351;28;20517;-87
2022/03/31 09:41:20;;;;;;;19.63;9.20;;;4.50;97.30;;;;;;5002553;28;20447;-86
2022/03/31 09:43:47;;;;;;;16.87;8.40;;;4.60;97.30;;;;;;4992264;28;20417;-86
2022/03/31 09:46:27;;;;;;;14.47;8.30;;;4.50;97.30;;;;;;4995967;28;20491;-87
2022/03/31 09:48:54;;;;;;;14.00;8.20;;;4.50;97.30;;;;;;4992655;28;20417;-87
2022/03/31 09:51:21;;;;;;;19.13;8.90;;;4.50;97.30;;;;;;5000519;28;20848;-88
2022/03/31 09:53:48;;;;;;;14.37;7.80;;;4.70;97.30;;;;;;5007829;28;20428;-86
2022/03/31 09:56:18;;;;;;;20.00;8.40;;;4.70;97.30;;;;;;5005065;28;20416;-86
2022/03/31 09:58:46;;;;;;;14.80;7.40;;;4.70;97.30;;;;;;5006094;28;20511;-87
2022/03/31 10:01:14;;;;;;;15.97;8.37;;;4.60;97.30;;;;;;5012266;28;20592;-86
2022/03/31 10:03:39;;;;;;;13.60;7.70;;;4.60;97.30;;;;;;5011783;28;20419;-88
2022/03/31 10:06:06;;;;;;;19.40;9.27;;;4.50;97.30;;;;;;5029381;28;20422;-87
2022/03/31 10:08:37;;;;;;;19.23;8.63;;;4.50;97.30;;;;;;5011881;28;20257;-88
2022/03/31 10:11:04;;;;;;;13.87;7.57;;;4.50;97.30;;;;;;5014743;28;20443;-87
2022/03/31 10:13:37;;;;;;;18.00;7.97;;;4.50;97.30;;;;;;5007871;28;21076;-87
2022/03/31 10:16:13;;;;;;;16.00;8.43;;;4.50;97.30;;;;;;5028384;28;20986;-88
2022/03/31 10:18:40;;;;;;;14.00;7.50;;;4.50;97.30;;;;;;5028900;28;20419;-87
2022/03/31 10:21:05;;;;;;;11.10;7.13;;;4.50;97.30;;;;;;5008388;28;20467;-85
2022/03/31 10:26:23;;;;;;;16.40;7.67;;;4.40;97.30;;;;;;4990999;28;20197;-89
2022/03/31 10:28:59;;;;;;;13.20;7.63;;;4.40;97.30;;;;;;5028686;28;20419;-88
2022/03/31 10:31:43;;;;;;;17.03;7.67;;;4.40;97.30;;;;;;5009718;28;20428;-87
2022/03/31 10:34:11;;;;;;;13.63;7.60;;;4.40;97.30;;;;;;5008325;28;20503;-87
2022/03/31 10:36:48;;;;;;;20.70;7.83;;;4.40;97.30;;;;;;5008135;28;20464;-87
2022/03/31 10:39:20;;;;;;;19.30;7.60;;;4.50;97.30;;;;;;5026423;28;20411;-86
2022/03/31 10:41:47;;;;;;;15.90;8.60;;;4.50;97.30;;;;;;5029956;28;20503;-87
2022/03/31 10:44:12;;;;;;;17.17;8.83;;;4.50;97.30;;;;;;5028513;28;20420;-87
2022/03/31 10:46:43;;;;;;;19.87;8.40;;;4.40;97.30;;;;;;5021861;28;20439;-87
2022/03/31 10:49:12;;;;;;;12.07;6.77;;;4.40;97.30;;;;;;5007002;28;20656;-86
2022/03/31 10:51:41;;;;;;;16.30;8.00;;;4.40;97.30;;;;;;5007870;28;20540;-87
2022/03/31 10:54:11;;;;;;;28.43;11.37;;;4.50;97.30;;;;;;5008083;28;20486;-87
2022/03/31 10:56:38;;;;;;;32.13;12.93;;;4.60;97.30;;;;;;5009326;28;20464;-87
2022/03/31 10:59:06;;;;;;;21.43;11.57;;;4.70;97.30;;;;;;5009328;28;20420;-87
2022/03/31 11:01:39;;;;;;;22.67;11.30;;;4.80;97.30;;;;;;5006019;28;20432;-87
2022/03/31 11:04:09;;;;;;;25.37;10.57;;;4.80;97.30;;;;;;5007310;28;20507;-88
2022/03/31 11:06:55;;;;;;;16.37;7.97;;;4.90;97.30;;;;;;5003867;28;20506;-86
2022/03/31 11:09:27;;;;;;;19.40;8.27;;;4.90;97.30;;;;;;5010912;28;20444;-87
2022/03/31 11:11:53;;;;;;;17.63;8.23;;;4.90;97.30;;;;;;5009640;28;20554;-87
2022/03/31 11:14:19;;;;;;;20.27;10.00;;;4.80;97.30;;;;;;5009205;28;20435;-87
2022/03/31 11:16:45;;;;;;;18.20;9.67;;;4.80;97.30;;;;;;4988246;28;20988;-86
2022/03/31 11:19:11;;;;;;;17.20;9.10;;;4.70;97.30;;;;;;4997172;28;20553;-87
2022/03/31 11:21:38;;;;;;;21.00;10.60;;;4.80;97.30;;;;;;5006855;28;20225;-86
2022/03/31 11:24:07;;;;;;;19.30;9.97;;;4.80;97.30;;;;;;5004928;28;20436;-87
2022/03/31 11:26:41;;;;;;;24.37;11.07;;;4.90;97.30;;;;;;5007957;28;20416;-87
2022/03/31 11:29:16;;;;;;;19.00;10.80;;;4.80;97.30;;;;;;5008493;28;20411;-88
2022/03/31 11:31:46;;;;;;;20.40;12.00;;;4.80;97.30;;;;;;5008099;28;20534;-87
2022/03/31 11:34:16;;;;;;;24.10;11.50;;;4.70;97.30;;;;;;5009799;28;20416;-86
2022/03/31 11:36:43;;;;;;;33.43;11.17;;;4.70;97.30;;;;;;5008287;28;20454;-88
2022/03/31 11:39:08;;;;;;;22.27;11.07;;;4.80;97.30;;;;;;5008342;28;20428;-88
2022/03/31 11:41:39;;;;;;;23.20;11.17;;;4.70;97.30;;;;;;5008988;28;20436;-87
2022/03/31 11:44:07;;;;;;;22.30;12.07;;;4.70;97.30;;;;;;5008557;28;20319;-87
2022/03/31 11:46:40;;;;;;;18.77;9.07;;;4.70;97.30;;;;;;5008238;28;21073;-87
2022/03/31 11:49:26;;;;;;;15.63;8.50;;;4.70;97.30;;;;;;5019416;28;20837;-86
2022/03/31 11:51:54;;;;;;;20.90;8.63;;;4.70;97.30;;;;;;5021161;28;20447;-87
2022/03/31 11:54:21;;;;;;;14.77;7.60;;;4.70;97.30;;;;;;5015405;28;21014;-87
2022/03/31 11:56:47;;;;;;;17.07;7.10;;;4.70;97.30;;;;;;5025956;28;20467;-88
2022/03/31 11:59:14;;;;;;;14.40;7.90;;;4.80;97.30;;;;;;5026942;28;20748;-88
2022/03/31 12:01:45;;;;;;;17.83;8.53;;;4.80;97.30;;;;;;5007251;28;20440;-88
2022/03/31 12:04:23;;;;;;;13.67;8.43;;;4.80;97.30;;;;;;5002970;28;20427;-87
2022/03/31 12:06:54;;;;;;;17.57;8.73;;;4.70;97.30;;;;;;5024784;28;20411;-87
2022/03/31 12:09:28;;;;;;;20.97;9.23;;;4.70;97.30;;;;;;5031574;28;20506;-87
2022/03/31 12:11:55;;;;;;;21.53;10.77;;;4.70;97.30;;;;;;5018687;28;20415;-88
2022/03/31 12:14:21;;;;;;;18.20;9.60;;;4.60;97.30;;;;;;5030220;28;20415;-88
2022/03/31 12:16:53;;;;;;;20.50;10.90;;;4.60;97.30;;;;;;5026492;28;20451;-89
2022/03/31 12:19:20;;;;;;;20.70;11.13;;;4.60;97.30;;;;;;5028548;28;20942;-88
2022/03/31 12:21:51;;;;;;;23.00;11.50;;;4.60;97.30;;;;;;5028151;28;20832;-88
2022/03/31 12:24:17;;;;;;;18.87;9.80;;;4.60;97.30;;;;;;5047690;28;20487;-88
2022/03/31 12:26:56;;;;;;;19.93;10.37;;;4.60;97.30;;;;;;5030496;28;21009;-87
2022/03/31 12:29:23;;;;;;;19.97;9.53;;;4.60;97.30;;;;;;5031640;28;20981;-87
2022/03/31 12:32:09;;;;;;;26.57;10.83;;;4.60;97.30;;;;;;5028683;28;20447;-87
2022/03/31 12:34:37;;;;;;;23.87;10.43;;;4.50;97.30;;;;;;5031006;28;20415;-88
2022/03/31 12:37:03;;;;;;;20.83;9.50;;;4.50;97.30;;;;;;5030905;28;20451;-87
2022/03/31 12:39:29;;;;;;;24.63;11.23;;;4.50;97.30;;;;;;5031022;28;20431;-87
2022/03/31 12:41:57;;;;;;;22.57;12.20;;;4.50;97.30;;;;;;5030452;28;20486;-87
2022/03/31 12:44:26;;;;;;;19.60;9.93;;;4.50;97.30;;;;;;5008644;28;20174;-87
2022/03/31 12:46:56;;;;;;;23.80;11.47;;;4.50;97.30;;;;;;5004723;28;20419;-87
2022/03/31 12:49:31;;;;;;;21.27;10.00;;;4.50;97.30;;;;;;5026611;28;20995;-87
2022/03/31 12:51:58;;;;;;;24.30;11.47;;;4.60;97.30;;;;;;5022938;28;20462;-87
2022/03/31 12:54:50;;;;;;;22.27;11.60;;;4.60;97.30;;;;;;5025841;28;20453;-86